Time;durP1;ratioP1;P1;durP2;ratioP2;P2;SDS_P1;SDS_P2;PMS_P1;PMS_P2;Temp;Humidity;BMP_temperature;BMP_pressure;BME280_temperature;BME280_humidity;BME280_pressure;Samples;Min_cycle;Max_cycle;Signal;HPM_P1;HPM_P2
2023/01/29 00:03:20;;;;;;;;;;;4.30;55.80;;;2.53;61.47;102372.78;12250015;19;19918;-83
2023/01/29 00:07:21;;;;;;;;;;;4.30;55.90;;;2.54;61.29;102365.88;12247539;19;19911;-83
2023/01/29 00:11:24;;;;;;;;;;;4.40;55.90;;;2.58;61.53;102368.50;12248420;19;19918;-83
2023/01/29 00:15:26;;;;;;;;;;;4.30;55.90;;;2.58;61.39;102363.34;12252427;19;19910;-83
2023/01/29 00:19:27;;;;;;;;;;;4.30;55.80;;;2.39;61.46;102330.59;12260625;19;19935;-83
2023/01/29 00:23:29;;;;;;;;;;;4.30;55.80;;;2.44;61.49;102342.66;12259905;19;19922;-82
2023/01/29 00:27:30;;;;;;;;;;;4.60;55.80;;;2.58;61.39;102355.59;12256161;19;20270;-83
2023/01/29 00:31:33;;;;;;;;;;;4.30;55.60;;;2.56;61.36;102357.31;12261516;19;19922;-83
2023/01/29 00:35:38;;;;;;;;;;;4.30;55.50;;;2.54;61.27;102347.84;12255030;19;20332;-83
2023/01/29 00:39:39;;;;;;;;;;;4.30;55.70;;;2.55;61.48;102350.44;12257627;19;19918;-83
2023/01/29 00:48:01;;;;;;;;;;;4.30;55.80;;;2.53;61.53;102336.69;12253143;19;19922;-82
2023/01/29 00:56:24;;;;;;;;;;;4.30;55.90;;;2.47;61.51;102305.72;12255201;19;19966;-83
2023/01/29 01:00:26;;;;;;;;;;;4.30;55.80;;;2.54;61.41;102325.53;12259483;19;19966;-83
2023/01/29 01:04:27;;;;;;;;;;;4.30;55.90;;;2.53;61.40;102325.50;12258129;19;20360;-83
2023/01/29 01:13:03;;;;;;;;;;;4.50;56.00;;;2.61;61.28;102340.13;12259216;19;19922;-83
2023/01/29 01:17:05;;;;;;;;;;;4.30;56.00;;;2.49;61.37;102309.16;12254164;19;19929;-83
2023/01/29 01:21:07;;;;;;;;;;;4.60;56.10;;;2.60;61.22;102329.84;12256859;19;20329;-83
2023/01/29 01:25:09;;;;;;;;;;;4.30;55.90;;;2.56;61.20;102328.94;12255471;19;19919;-83
2023/01/29 01:29:11;;;;;;;;;;;4.60;56.00;;;2.06;61.23;102238.53;12251560;19;20315;-83
2023/01/29 01:33:13;;;;;;;;;;;4.40;55.90;;;2.58;61.46;102324.66;12256844;19;19938;-83
2023/01/29 01:37:14;;;;;;;;;;;4.30;55.80;;;2.62;61.28;102333.28;12253184;19;19919;-83
2023/01/29 01:41:20;;;;;;;;;;;4.40;55.90;;;2.60;61.45;102335.84;12254098;19;19918;-83
2023/01/29 01:45:28;;;;;;;;;;;4.40;56.00;;;2.68;61.26;102333.31;12254750;19;19943;-83
2023/01/29 01:49:30;;;;;;;;;;;4.40;55.90;;;2.68;61.49;102341.03;12253321;19;20286;-83
2023/01/29 01:53:43;;;;;;;;;;;4.60;56.00;;;2.54;61.48;102307.47;12256195;19;19923;-83
2023/01/29 01:57:46;;;;;;;;;;;4.40;55.90;;;2.52;61.27;102313.47;12257055;19;19926;-83
2023/01/29 02:01:52;;;;;;;;;;;4.40;55.80;;;2.57;61.29;102316.94;12261262;19;19931;-83
2023/01/29 02:10:19;;;;;;;;;;;4.40;55.90;;;2.59;61.27;102305.78;12256431;19;19990;-84
2023/01/29 02:14:21;;;;;;;;;;;4.40;56.00;;;2.61;61.43;102305.75;12258110;19;19923;-83
2023/01/29 02:18:22;;;;;;;;;;;4.40;56.00;;;2.72;61.37;102316.13;12249157;19;19917;-84
2023/01/29 02:23:01;;;;;;;;;;;4.40;56.00;;;2.72;61.59;102316.97;12257544;19;19994;-83
2023/01/29 02:27:51;;;;;;;;;;;4.40;56.00;;;2.71;61.43;102315.25;12249514;19;20259;-84
2023/01/29 02:32:13;;;;;;;;;;;4.50;56.00;;;2.58;61.45;102298.03;12253278;19;20327;-83
2023/01/29 02:36:42;;;;;;;;;;;4.40;56.00;;;2.72;61.40;102309.22;12249239;19;19921;-82
2023/01/29 02:40:49;;;;;;;;;;;4.50;56.10;;;2.53;61.38;102274.78;12253516;19;19926;-83
2023/01/29 02:44:59;;;;;;;;;;;4.40;56.00;;;2.60;61.37;102281.69;12255584;19;19922;-83
2023/01/29 02:49:26;;;;;;;;;;;4.40;56.00;;;2.70;61.30;102302.34;12252678;19;19923;-83
2023/01/29 02:53:43;;;;;;;;;;;4.40;56.10;;;2.68;61.33;102304.94;12255502;19;20428;-83
2023/01/29 02:57:47;;;;;;;;;;;4.70;56.10;;;2.59;61.45;102274.84;12251023;19;19923;-83
2023/01/29 03:01:56;;;;;;;;;;;4.40;56.10;;;2.72;61.46;102288.59;12255579;19;19922;-83
2023/01/29 03:06:19;;;;;;;;;;;4.50;56.10;;;2.73;61.40;102289.44;12249022;19;19930;-83
2023/01/29 03:10:27;;;;;;;;;;;4.50;56.10;;;2.66;61.40;102283.44;12257684;19;19929;-83
2023/01/29 03:19:13;;;;;;;;;;;4.50;56.10;;;2.70;61.39;102279.13;12255642;19;19935;-83
2023/01/29 03:23:26;;;;;;;;;;;4.60;56.20;;;2.68;61.37;102262.81;12254694;19;20339;-83
2023/01/29 03:32:04;;;;;;;;;;;4.50;56.20;;;2.70;61.59;102259.38;12254973;19;19919;-83
2023/01/29 03:36:12;;;;;;;;;;;4.50;56.20;;;2.76;61.39;102276.59;12248699;19;19926;-83
2023/01/29 03:40:14;;;;;;;;;;;4.50;56.20;;;2.65;61.27;102258.50;12247371;19;19918;-82
2023/01/29 03:44:29;;;;;;;;;;;4.50;56.20;;;2.74;61.41;102261.09;12246593;19;19918;-83
2023/01/29 03:48:45;;;;;;;;;;;4.50;56.20;;;2.68;61.51;102243.03;12244065;19;19925;-83
2023/01/29 03:53:02;;;;;;;;;;;4.80;56.30;;;2.76;61.43;102253.38;12244717;19;19915;-82
2023/01/29 03:57:18;;;;;;;;;;;4.50;56.20;;;2.58;61.62;102207.78;12246017;19;19915;-83
2023/01/29 04:01:37;;;;;;;;;;;4.50;56.20;;;2.69;61.51;102215.53;12244473;19;19930;-83
2023/01/29 04:05:48;;;;;;;;;;;4.50;56.10;;;2.57;61.55;102183.72;12243214;19;19926;-83
2023/01/29 04:10:08;;;;;;;;;;;4.50;56.20;;;2.48;61.26;102162.19;12244780;19;19918;-83
2023/01/29 04:14:11;;;;;;;;;;;4.50;56.10;;;2.72;61.52;102198.31;12247499;19;19986;-83
2023/01/29 04:18:14;;;;;;;;;;;4.50;56.10;;;2.80;61.39;102201.78;12238766;19;19914;-83
2023/01/29 04:22:37;;;;;;;;;;;4.50;56.10;;;2.81;61.39;102203.50;12246266;19;20324;-83
2023/01/29 04:26:49;;;;;;;;;;;4.60;56.10;;;2.80;61.47;102201.78;12242934;19;19923;-83
2023/01/29 04:31:04;;;;;;;;;;;4.50;56.10;;;2.75;61.45;102172.53;12252638;19;19921;-83
2023/01/29 04:35:09;;;;;;;;;;;4.60;56.20;;;2.84;61.34;102171.69;12247530;19;19939;-83
2023/01/29 04:39:30;;;;;;;;;;;4.60;56.20;;;2.81;61.40;102162.25;12249778;19;20250;-83
2023/01/29 04:43:38;;;;;;;;;;;4.60;56.10;;;2.83;61.32;102162.22;12248758;19;19942;-83
2023/01/29 04:47:50;;;;;;;;;;;4.60;56.20;;;2.77;61.71;102139.88;12239800;19;19918;-84
2023/01/29 04:52:13;;;;;;;;;;;4.60;56.10;;;2.86;61.57;102159.63;12247606;19;19964;-83
2023/01/29 04:56:22;;;;;;;;;;;4.60;56.10;;;2.87;61.27;102153.63;12242909;19;20245;-83
2023/01/29 05:00:28;;;;;;;;;;;4.80;56.30;;;2.88;61.25;102155.34;12245624;19;19947;-83
2023/01/29 05:04:32;;;;;;;;;;;4.60;56.20;;;2.61;61.33;102122.69;12257155;19;19946;-82
2023/01/29 05:08:36;;;;;;;;;;;4.60;56.20;;;2.87;61.43;102157.06;12250347;19;20357;-83
2023/01/29 05:12:39;;;;;;;;;;;4.90;56.30;;;2.86;61.51;102152.78;12254873;19;19919;-83
2023/01/29 05:16:44;;;;;;;;;;;4.70;56.60;;;2.89;61.43;102149.34;12254413;19;19914;-83
2023/01/29 05:20:46;;;;;;;;;;;4.70;56.20;;;2.91;61.54;102165.66;12254933;19;19914;-82
2023/01/29 05:24:49;;;;;;;;;;;4.80;56.20;;;2.91;61.38;102151.91;12255870;19;20324;-83
2023/01/29 05:28:51;;;;;;;;;;;4.80;56.30;;;2.91;61.33;102159.66;12255935;19;19923;-83
2023/01/29 05:32:52;;;;;;;;;;;4.70;56.20;;;2.65;61.58;102120.09;12254888;19;19918;-83
2023/01/29 05:36:54;;;;;;;;;;;4.70;56.20;;;2.86;61.41;102170.84;12254717;19;19933;-83
2023/01/29 05:40:58;;;;;;;;;;;4.80;56.30;;;2.95;61.46;102179.44;12254525;19;19978;-83
2023/01/29 05:44:59;;;;;;;;;;;4.90;56.40;;;2.91;61.47;102168.25;12254375;19;19918;-83
2023/01/29 05:49:01;;;;;;;;;;;4.70;56.40;;;2.93;61.47;102170.84;12252323;19;19915;-83
2023/01/29 05:53:03;;;;;;;;;;;4.70;56.40;;;2.94;61.60;102168.22;12256866;19;19911;-83
2023/01/29 05:57:04;;;;;;;;;;;5.00;56.50;;;3.00;61.32;102172.56;12251188;19;19926;-84
2023/01/29 06:01:17;;;;;;;;;;;4.70;56.40;;;2.91;61.52;102181.13;12255536;19;20250;-83
2023/01/29 06:05:19;;;;;;;;;;;4.70;56.50;;;2.86;61.41;102178.59;12248538;19;19926;-83
2023/01/29 06:09:20;;;;;;;;;;;4.70;56.50;;;3.02;61.40;102191.47;12250539;19;19925;-83
2023/01/29 06:13:21;;;;;;;;;;;4.90;56.60;;;2.61;61.44;102126.09;12253054;19;19930;-84
2023/01/29 06:17:23;;;;;;;;;;;4.80;56.60;;;3.03;61.27;102206.97;12246932;19;19966;-83
2023/01/29 06:21:24;;;;;;;;;;;4.80;56.70;;;2.90;61.53;102181.16;12253011;19;19982;-83
2023/01/29 06:25:26;;;;;;;;;;;4.90;56.70;;;3.03;61.52;102194.06;12248793;19;19947;-83
2023/01/29 06:29:27;;;;;;;;;;;4.80;56.70;;;2.96;61.55;102176.00;12245241;19;19937;-83
2023/01/29 06:33:29;;;;;;;;;;;5.00;56.80;;;3.06;61.53;102188.03;12251488;19;19922;-83
2023/01/29 06:37:31;;;;;;;;;;;4.80;56.70;;;3.11;61.32;102191.47;12247947;19;20349;-83
2023/01/29 06:41:33;;;;;;;;;;;5.00;56.90;;;3.07;61.49;102179.41;12249456;19;19923;-83
2023/01/29 06:45:34;;;;;;;;;;;4.90;56.90;;;3.07;61.41;102177.69;12248061;19;19927;-82
2023/01/29 06:49:36;;;;;;;;;;;4.80;56.80;;;3.08;61.29;102184.59;12246123;19;19923;-83
2023/01/29 06:53:38;;;;;;;;;;;5.00;56.90;;;3.02;61.65;102186.31;12249674;19;19907;-82
2023/01/29 06:57:40;;;;;;;;;;;4.90;56.90;;;2.62;61.45;102103.78;12246108;19;19928;-83
2023/01/29 07:01:42;;;;;;;;;;;5.10;57.00;;;3.17;61.58;102201.78;12250652;19;20256;-83
2023/01/29 07:05:51;;;;;;;;;;;4.90;56.90;;;2.96;61.22;102171.69;12247008;19;20415;-83
2023/01/29 07:09:53;;;;;;;;;;;4.90;56.90;;;3.12;61.46;102184.59;12246572;19;19979;-83
2023/01/29 07:13:54;;;;;;;;;;;5.10;57.40;;;3.07;61.49;102174.25;12248264;19;19919;-85
2023/01/29 07:18:00;;;;;;;;;;;4.90;57.00;;;3.05;61.45;102174.28;12244023;19;19955;-84
2023/01/29 07:22:02;;;;;;;;;;;4.90;57.00;;;3.17;61.74;102193.19;12246780;19;20257;-84
2023/01/29 07:26:05;;;;;;;;;;;4.90;57.00;;;3.06;61.46;102157.06;12244953;19;19919;-84
2023/01/29 07:30:07;;;;;;;;;;;4.90;57.10;;;3.19;61.50;102181.16;12250204;19;20052;-84
2023/01/29 07:34:08;;;;;;;;;;;4.90;57.00;;;3.22;61.70;102194.91;12247740;19;19996;-85
2023/01/29 07:38:10;;;;;;;;;;;5.00;57.10;;;3.19;61.43;102194.06;12249644;19;20244;-85
2023/01/29 07:42:12;;;;;;;;;;;4.90;57.00;;;3.19;61.55;102171.69;12247753;19;20292;-85
2023/01/29 07:46:13;;;;;;;;;;;4.90;57.10;;;3.19;61.61;102168.25;12248636;19;19938;-85
2023/01/29 07:50:14;;;;;;;;;;;4.90;57.10;;;3.20;61.55;102168.22;12248703;19;20445;-83
2023/01/29 07:54:16;;;;;;;;;;;5.00;57.10;;;3.26;61.63;102170.78;12247020;19;19994;-83
2023/01/29 07:58:17;;;;;;;;;;;5.00;57.20;;;3.16;61.47;102151.03;12246902;19;20256;-85
2023/01/29 08:02:19;;;;;;;;;;;5.30;57.40;;;3.28;61.51;102152.72;12240830;19;19922;-84
2023/01/29 08:06:21;;;;;;;;;;;5.00;57.20;;;3.13;61.67;102129.50;12245352;19;19919;-84
2023/01/29 08:10:22;;;;;;;;;;;5.00;57.20;;;3.25;61.59;102142.41;12249895;19;19935;-85
2023/01/29 08:14:24;;;;;;;;;;;5.00;57.30;;;3.25;61.59;102139.84;12250081;19;19914;-83
2023/01/29 08:18:26;;;;;;;;;;;5.00;57.20;;;2.95;61.61;102084.84;12246019;19;19946;-82
2023/01/29 08:22:27;;;;;;;;;;;5.10;57.60;;;3.32;61.83;102147.56;12242038;19;19970;-83
2023/01/29 08:26:29;;;;;;;;;;;5.00;57.40;;;3.32;61.67;102150.16;12241660;19;20310;-83
2023/01/29 08:30:33;;;;;;;;;;;5.00;57.40;;;3.27;61.67;102140.69;12246109;19;20193;-83
2023/01/29 08:34:34;;;;;;;;;;;5.00;57.40;;;3.34;61.71;102163.03;12243093;19;19956;-84
2023/01/29 08:38:36;;;;;;;;;;;5.00;57.40;;;3.02;61.67;102093.41;12251213;19;19930;-83
2023/01/29 08:42:37;;;;;;;;;;;5.10;57.50;;;3.25;61.48;102119.19;12252024;19;19911;-84
2023/01/29 08:46:39;;;;;;;;;;;5.00;57.40;;;3.39;61.68;102137.22;12251084;19;20064;-84
2023/01/29 08:50:41;;;;;;;;;;;5.10;57.50;;;3.32;61.61;102136.34;12257266;19;19930;-84
2023/01/29 08:54:42;;;;;;;;;;;5.30;57.60;;;3.24;61.66;102115.75;12255382;19;19915;-84
2023/01/29 08:58:44;;;;;;;;;;;5.10;57.60;;;3.42;61.85;102150.13;12253969;19;19929;-83
2023/01/29 09:02:45;;;;;;;;;;;5.10;57.60;;;3.27;61.62;102120.03;12256498;19;20344;-83
2023/01/29 09:06:46;;;;;;;;;;;5.10;57.60;;;3.31;61.68;102112.25;12255277;19;19919;-84
2023/01/29 09:10:48;;;;;;;;;;;5.10;57.60;;;3.30;61.89;102110.56;12253931;19;20268;-84
2023/01/29 09:14:49;;;;;;;;;;;5.10;57.60;;;3.46;61.60;102123.44;12252473;19;19914;-84
2023/01/29 09:18:52;;;;;;;;;;;5.40;57.80;;;3.51;61.64;102129.41;12257781;19;19914;-83
2023/01/29 09:22:55;;;;;;;;;;;5.20;57.60;;;3.49;61.70;102121.69;12258120;19;19915;-84
2023/01/29 09:26:57;;;;;;;;;;;5.20;57.70;;;3.53;61.67;102128.53;12250856;19;19919;-84
2023/01/29 09:31:02;;;;;;;;;;;5.50;57.80;;;3.48;61.70;102129.44;12259385;19;20027;-84
2023/01/29 09:35:04;;;;;;;;;;;5.20;57.70;;;3.23;61.63;102088.19;12256322;19;19933;-84
2023/01/29 09:39:05;;;;;;;;;;;5.20;57.80;;;3.57;61.67;102139.75;12260013;19;19914;-83
2023/01/29 09:43:14;;;;;;;;;;;5.20;57.70;;;3.49;61.64;102113.09;12257420;19;19919;-83
2023/01/29 09:47:17;;;;;;;;;;;5.20;57.70;;;3.58;61.84;102105.28;12251120;19;19919;-84
2023/01/29 09:51:29;;;;;;;;;;;5.30;57.70;;;3.53;61.68;102088.97;12255875;19;19917;-83
2023/01/29 09:55:52;;;;;;;;;;;5.60;57.90;;;3.32;61.75;102046.88;12250951;19;19929;-83
2023/01/29 09:59:54;;;;;;;;;;;5.40;57.80;;;3.58;61.66;102084.63;12252546;19;19942;-83
2023/01/29 10:04:20;;;;;;;;;;;5.40;57.80;;;3.72;61.79;102100.06;12252100;19;19922;-84
2023/01/29 10:08:58;;;;;;;;;;;5.40;58.10;;;3.73;61.78;102091.47;12245571;19;19934;-83
2023/01/29 10:13:11;;;;;;;;;;;5.40;57.80;;;3.76;61.76;102089.72;12249516;19;19919;-85
2023/01/29 10:17:36;;;;;;;;;;;5.40;57.80;;;3.77;61.92;102073.34;12249884;19;19985;-84
2023/01/29 10:22:00;;;;;;;;;;;5.50;57.80;;;3.81;62.00;102060.41;12252409;19;19907;-85
2023/01/29 10:26:01;;;;;;;;;;;5.50;57.80;;;3.83;61.80;102058.69;12250452;19;20334;-85
2023/01/29 10:30:08;;;;;;;;;;;5.50;57.80;;;3.73;61.94;102026.88;12248837;19;19927;-85
2023/01/29 10:34:50;;;;;;;;;;;5.60;57.90;;;3.89;61.84;102043.13;12244724;19;19919;-85
2023/01/29 10:38:52;;;;;;;;;;;5.60;57.90;;;3.88;61.82;102046.59;12246557;19;19926;-86
2023/01/29 10:43:09;;;;;;;;;;;5.60;57.90;;;3.94;61.86;102047.44;12250033;19;19918;-83
2023/01/29 10:47:48;;;;;;;;;;;5.70;57.90;;;4.03;61.97;102061.16;12249508;19;19919;-84
2023/01/29 10:52:07;;;;;;;;;;;5.70;57.90;;;3.92;61.84;102017.31;12242821;19;20002;-85
2023/01/29 10:56:23;;;;;;;;;;;5.80;58.00;;;4.13;61.85;102048.16;12247028;19;19921;-85
2023/01/29 11:00:39;;;;;;;;;;;5.80;57.90;;;4.08;62.02;102023.19;12244675;19;20280;-84
2023/01/29 11:04:40;;;;;;;;;;;5.90;58.00;;;4.22;62.11;102026.56;12245392;19;20372;-84
2023/01/29 11:08:54;;;;;;;;;;;5.90;58.00;;;4.28;62.12;102018.72;12248085;19;19915;-85
2023/01/29 11:12:56;;;;;;;;;;;5.90;58.00;;;4.22;61.93;101998.97;12249079;19;19929;-84
2023/01/29 11:16:58;;;;;;;;;;;6.20;58.00;;;4.27;61.95;101988.59;12245761;19;19942;-84
2023/01/29 11:21:02;;;;;;;;;;;6.10;58.10;;;4.19;62.07;101961.94;12250686;19;19942;-85
2023/01/29 11:25:11;;;;;;;;;;;6.10;58.10;;;4.44;62.15;101997.03;12246894;19;20355;-86
2023/01/29 11:29:38;;;;;;;;;;;6.20;58.00;;;4.45;61.91;101977.19;12248555;19;19915;-85
2023/01/29 11:33:40;;;;;;;;;;;6.20;58.00;;;4.54;62.02;101976.28;12247814;19;20342;-84
2023/01/29 11:37:44;;;;;;;;;;;6.30;58.00;;;4.44;62.02;101950.50;12246907;19;19937;-84
2023/01/29 11:41:49;;;;;;;;;;;6.30;58.00;;;4.69;62.04;101968.34;12250616;19;19929;-85
2023/01/29 11:45:54;;;;;;;;;;;6.40;58.10;;;4.75;62.03;101973.47;12245570;19;19942;-85
2023/01/29 11:50:03;;;;;;;;;;;6.40;58.00;;;4.70;61.97;101945.91;12243893;19;19923;-84
2023/01/29 11:54:05;;;;;;;;;;;6.50;58.00;;;4.57;62.10;101909.84;12244635;19;19911;-85
2023/01/29 11:58:17;;;;;;;;;;;6.50;57.90;;;4.70;62.03;101920.91;12237110;19;19918;-84
2023/01/29 12:02:25;;;;;;;;;;;6.90;58.00;;;4.91;62.15;101957.75;12248118;19;19919;-84
2023/01/29 12:06:34;;;;;;;;;;;6.60;57.80;;;4.91;62.01;101944.81;12245413;19;19907;-84
2023/01/29 12:10:40;;;;;;;;;;;6.70;57.90;;;4.99;62.12;101943.84;12251772;19;19956;-86
2023/01/29 12:24:17;;;;;;;;;;;6.80;57.80;;;4.61;62.09;101836.47;12265991;19;19915;-85
2023/01/29 12:28:36;;;;;;;;;;;6.80;57.80;;;4.54;61.94;101815.91;12267886;19;20012;-83
2023/01/29 12:32:56;;;;;;;;;;;6.80;57.80;;;5.09;61.90;101896.25;12260687;19;19927;-84
2023/01/29 12:37:12;;;;;;;;;;;6.90;57.70;;;4.75;62.07;101819.94;12263518;19;19974;-84
2023/01/29 12:41:42;;;;;;;;;;;7.20;57.90;;;4.84;61.91;101825.00;12267832;19;20242;-84
2023/01/29 12:45:51;;;;;;;;;;;7.00;57.70;;;4.83;62.00;101802.56;12268052;19;19936;-84
2023/01/29 12:50:14;;;;;;;;;;;;;;;;;;;;;
2023/01/29 12:54:26;;;;;;;;;;;7.00;57.60;;;4.83;62.04;101782.75;12270201;19;19974;-84
2023/01/29 12:58:40;;;;;;;;;;;6.80;57.60;;;4.92;62.19;101788.66;12260545;19;19942;-83
2023/01/29 13:03:06;;;;;;;;;;;7.10;57.70;;;4.95;62.02;101793.78;12269460;19;19950;-84
2023/01/29 13:07:30;;;;;;;;;;;7.10;57.60;;;5.07;61.98;101819.47;12262329;19;19918;-84
2023/01/29 13:11:57;;;;;;;;;;;7.10;57.60;;;4.91;62.14;101780.03;12272913;19;19944;-83
2023/01/29 13:15:59;;;;;;;;;;;7.10;57.60;;;4.99;61.98;101795.44;12270812;19;19918;-84
2023/01/29 13:20:24;;;;;;;;;;;7.10;57.60;;;5.14;62.04;101812.50;12266027;19;19919;-83
2023/01/29 13:24:40;;;;;;;;;;;7.20;57.60;;;4.92;62.08;101762.78;12255664;19;20409;-83
2023/01/29 13:28:45;;;;;;;;;;;7.20;57.60;;;5.10;62.03;101785.78;12254519;19;19918;-84
2023/01/29 13:32:51;;;;;;;;;;;7.20;57.70;;;5.05;62.08;101775.50;12255768;19;19951;-83
2023/01/29 13:36:57;;;;;;;;;;;7.30;57.60;;;5.11;62.07;101779.75;12249723;19;19922;-83
2023/01/29 13:41:04;;;;;;;;;;;7.30;57.50;;;5.36;61.91;101810.44;12253419;19;19926;-83
2023/01/29 13:45:06;;;;;;;;;;;7.30;57.50;;;5.17;61.90;101771.88;12254927;19;19915;-84
2023/01/29 13:49:42;;;;;;;;;;;7.30;57.50;;;5.19;62.01;101767.53;12251675;19;19956;-84
2023/01/29 13:54:10;;;;;;;;;;;7.40;57.50;;;5.19;61.99;101770.13;12254888;19;19922;-84
2023/01/29 13:58:17;;;;;;;;;;;7.30;57.40;;;5.42;62.03;101800.81;12249092;19;19922;-85
2023/01/29 14:02:22;;;;;;;;;;;7.30;57.30;;;5.17;61.85;101756.34;12251271;19;19918;-84
2023/01/29 14:06:40;;;;;;;;;;;7.40;57.30;;;5.16;61.97;101764.09;12244035;19;19919;-84
2023/01/29 14:10:42;;;;;;;;;;;7.30;57.20;;;4.98;61.85;101729.03;12249348;19;20289;-84
2023/01/29 14:14:46;;;;;;;;;;;7.50;57.30;;;5.58;61.83;101821.28;12251581;19;19918;-84
2023/01/29 14:18:58;;;;;;;;;;;7.30;57.30;;;5.47;61.98;101805.91;12253205;19;19917;-84
2023/01/29 14:23:01;;;;;;;;;;;7.40;57.30;;;4.99;61.83;101735.91;12254535;19;19915;-84
2023/01/29 14:27:02;;;;;;;;;;;7.20;57.30;;;5.23;61.78;101779.53;12248207;19;19919;-85
2023/01/29 14:31:06;;;;;;;;;;;7.20;57.40;;;4.96;61.98;101730.78;12252016;19;19930;-84
2023/01/29 14:35:22;;;;;;;;;;;7.00;57.30;;;5.10;61.92;101754.72;12248420;19;19926;-85
2023/01/29 14:39:32;;;;;;;;;;;7.10;57.30;;;4.99;61.88;101725.56;12252023;19;19915;-85
2023/01/29 14:43:34;;;;;;;;;;;7.10;57.40;;;4.66;61.90;101681.22;12253384;19;19911;-84
2023/01/29 14:47:35;;;;;;;;;;;7.10;57.50;;;5.48;61.95;101817.97;12247881;19;19918;-84
2023/01/29 14:51:42;;;;;;;;;;;7.10;57.50;;;5.02;61.79;101743.63;12253266;19;19918;-84
2023/01/29 14:55:47;;;;;;;;;;;7.20;57.40;;;5.45;61.72;101811.09;12251486;19;19952;-84
2023/01/29 14:59:55;;;;;;;;;;;7.10;57.40;;;5.32;61.90;101791.50;12243782;19;19922;-85
2023/01/29 15:09:08;;;;;;;;;;;7.00;57.50;;;4.84;61.70;101693.88;12248835;19;19925;-85
2023/01/29 15:13:25;;;;;;;;;;;7.00;57.50;;;5.40;61.86;101783.56;12242679;19;20249;-84
2023/01/29 15:17:31;;;;;;;;;;;7.00;57.60;;;4.91;61.74;101714.47;12246459;19;19927;-84
2023/01/29 15:22:12;;;;;;;;;;;7.00;57.90;;;5.34;61.66;101771.59;12242240;19;19922;-84
2023/01/29 15:26:21;;;;;;;;;;;7.20;57.70;;;4.86;61.69;101691.25;12246171;19;19938;-84
2023/01/29 15:30:32;;;;;;;;;;;6.90;57.60;;;5.01;61.75;101714.31;12238079;19;20450;-84
2023/01/29 15:34:34;;;;;;;;;;;6.90;57.60;;;4.82;61.78;101685.28;12245543;19;19918;-85
2023/01/29 15:38:35;;;;;;;;;;;6.90;57.60;;;4.77;61.84;101671.53;12239578;19;19929;-84
2023/01/29 15:42:47;;;;;;;;;;;6.90;57.80;;;4.99;61.65;101710.88;12244306;19;19922;-85
2023/01/29 15:46:52;;;;;;;;;;;6.80;57.60;;;4.61;61.67;101655.41;12242973;19;19933;-84
2023/01/29 15:50:54;;;;;;;;;;;6.80;57.70;;;4.73;61.89;101684.59;12245164;19;19922;-85
2023/01/29 15:55:00;;;;;;;;;;;6.80;57.70;;;4.57;61.90;101660.69;12241412;19;19943;-85
2023/01/29 15:59:04;;;;;;;;;;;6.70;57.70;;;4.69;61.59;101678.56;12245537;19;19922;-85
2023/01/29 16:03:14;;;;;;;;;;;6.80;57.80;;;4.70;61.73;101672.53;12243761;19;19914;-85
2023/01/29 16:07:16;;;;;;;;;;;6.70;57.70;;;5.05;61.88;101728.91;12245452;19;19918;-84
2023/01/29 16:11:20;;;;;;;;;;;6.80;57.80;;;4.66;61.93;101663.09;12247401;19;19999;-84
2023/01/29 16:15:40;;;;;;;;;;;7.00;57.90;;;4.68;61.67;101663.94;12245268;19;20281;-85
2023/01/29 16:19:42;;;;;;;;;;;6.70;57.70;;;4.52;61.70;101634.03;12250309;19;19915;-85
2023/01/29 16:23:48;;;;;;;;;;;6.80;57.80;;;4.91;61.84;101702.38;12246884;19;20344;-85
2023/01/29 16:27:52;;;;;;;;;;;6.70;57.80;;;4.65;61.63;101670.03;12237286;19;19939;-85
2023/01/29 16:32:01;;;;;;;;;;;6.70;57.70;;;5.11;61.86;101733.13;12251737;19;19923;-85
2023/01/29 16:36:12;;;;;;;;;;;6.70;57.80;;;5.13;61.75;101738.28;12238058;19;19915;-83
2023/01/29 16:40:32;;;;;;;;;;;6.50;57.70;;;4.73;61.60;101651.78;12240961;19;19927;-84
2023/01/29 16:44:35;;;;;;;;;;;6.70;57.70;;;4.64;61.63;101641.56;12248023;19;19947;-83
2023/01/29 16:48:39;;;;;;;;;;;6.70;57.70;;;4.69;61.82;101647.53;12243664;19;19922;-84
2023/01/29 16:52:53;;;;;;;;;;;6.70;57.80;;;4.49;61.75;101613.38;12247204;19;20276;-84
2023/01/29 16:56:58;;;;;;;;;;;6.70;57.80;;;4.97;61.83;101688.47;12241260;19;19986;-85
2023/01/29 17:01:10;;;;;;;;;;;6.70;57.70;;;4.70;61.79;101646.66;12256342;19;19914;-84
2023/01/29 17:05:29;;;;;;;;;;;6.50;57.60;;;4.65;61.68;101648.47;12252327;19;19911;-84
2023/01/29 17:09:54;;;;;;;;;;;6.70;57.70;;;4.56;61.89;101630.50;12252937;19;19933;-84
2023/01/29 17:14:15;;;;;;;;;;;;;;;;;;;;;
2023/01/29 17:18:37;;;;;;;;;;;6.60;57.70;;;4.53;61.68;101618.47;12255662;19;19983;-84
2023/01/29 17:22:41;;;;;;;;;;;6.60;57.80;;;5.03;61.81;101698.75;12258988;19;19919;-83
2023/01/29 17:26:47;;;;;;;;;;;6.70;57.80;;;4.55;61.67;101621.03;12250662;19;20321;-84
2023/01/29 17:30:49;;;;;;;;;;;6.60;57.70;;;4.53;61.82;101610.69;12257276;19;19925;-84
2023/01/29 17:35:05;;;;;;;;;;;6.60;57.80;;;4.47;61.78;101599.63;12256268;19;19911;-84
2023/01/29 17:39:15;;;;;;;;;;;6.60;58.10;;;4.71;61.94;101640.59;12256826;19;19918;-86
2023/01/29 17:43:16;;;;;;;;;;;6.50;57.70;;;4.75;61.76;101644.88;12254862;19;19922;-85
2023/01/29 17:47:18;;;;;;;;;;;6.40;57.80;;;4.93;61.98;101654.03;12256927;19;19922;-84
2023/01/29 17:51:19;;;;;;;;;;;6.50;57.80;;;4.74;61.87;101624.19;12257470;19;20257;-83
2023/01/29 17:55:24;;;;;;;;;;;6.50;57.80;;;4.65;61.77;101607.94;12254361;19;19978;-84
2023/01/29 17:59:46;;;;;;;;;;;6.50;57.80;;;4.89;61.75;101626.53;12254485;19;20282;-85
2023/01/29 18:03:48;;;;;;;;;;;6.50;57.80;;;4.46;61.78;101556.53;12256240;19;20357;-84
2023/01/29 18:07:51;;;;;;;;;;;6.50;57.90;;;4.34;61.82;101536.88;12249024;19;19923;-83
2023/01/29 18:11:52;;;;;;;;;;;6.50;57.90;;;4.32;61.86;101523.13;12255761;19;19933;-84
2023/01/29 18:15:54;;;;;;;;;;;6.50;58.00;;;4.29;61.71;101518.84;12253776;19;19929;-83
2023/01/29 18:19:57;;;;;;;;;;;6.40;58.00;;;4.75;61.72;101582.78;12230164;19;19926;-85
2023/01/29 18:23:58;;;;;;;;;;;6.40;57.90;;;4.63;61.70;101559.69;12255315;19;19918;-84
2023/01/29 18:28:00;;;;;;;;;;;6.40;57.90;;;4.22;61.86;101478.50;12243911;19;19922;-83
2023/01/29 18:32:01;;;;;;;;;;;6.40;57.90;;;4.79;61.98;101576.66;12253150;19;20317;-83
2023/01/29 18:36:05;;;;;;;;;;;6.40;57.90;;;4.52;61.73;101538.31;12250306;19;19940;-84
2023/01/29 18:40:07;;;;;;;;;;;6.40;58.00;;;4.36;61.89;101506.69;12251943;19;20001;-83
2023/01/29 18:44:10;;;;;;;;;;;6.40;58.00;;;4.29;61.92;101493.00;12249000;19;20598;-83
2023/01/29 18:48:11;;;;;;;;;;;6.50;58.00;;;4.31;61.82;101488.66;12248246;19;19921;-83
2023/01/29 18:52:15;;;;;;;;;;;6.30;57.90;;;4.31;61.90;101485.25;12255137;19;19922;-83
2023/01/29 18:56:16;;;;;;;;;;;6.40;58.00;;;4.28;61.92;101483.56;12254728;19;19947;-84
2023/01/29 19:00:22;;;;;;;;;;;6.30;57.90;;;4.32;61.94;101484.34;12251382;19;19933;-83
2023/01/29 19:04:24;;;;;;;;;;;6.40;57.90;;;4.33;61.97;101481.75;12253680;19;19922;-84
2023/01/29 19:08:25;;;;;;;;;;;6.40;57.90;;;4.08;61.97;101442.53;12246417;19;19927;-83
2023/01/29 19:12:27;;;;;;;;;;;6.40;57.90;;;4.31;61.90;101480.06;12253570;19;19918;-83
2023/01/29 19:16:29;;;;;;;;;;;6.30;57.80;;;4.42;61.93;101493.66;12249653;19;19922;-84
2023/01/29 19:20:30;;;;;;;;;;;6.60;57.90;;;4.34;62.00;101478.28;12250091;19;20012;-84
2023/01/29 19:24:37;;;;;;;;;;;6.40;57.90;;;4.13;62.01;101437.28;12254388;19;20215;-84
2023/01/29 19:28:39;;;;;;;;;;;6.40;57.90;;;4.08;61.75;101426.16;12250521;19;19922;-85
2023/01/29 19:32:41;;;;;;;;;;;6.50;57.90;;;4.72;62.01;101515.53;12255331;19;19907;-84
2023/01/29 19:36:42;;;;;;;;;;;6.50;57.90;;;4.29;62.00;101433.53;12253199;19;19926;-85
2023/01/29 19:40:50;;;;;;;;;;;6.40;57.80;;;4.37;61.79;101462.69;12252845;19;19964;-85
2023/01/29 19:45:37;;;;;;;;;;;;;;;;;;;;;
2023/01/29 19:50:14;;;;;;;;;;;6.30;57.70;;;4.71;61.97;101492.28;12245139;19;19974;-84